createdAt,value
2022-08-25T00:00:44.411Z,19.25
2022-08-25T00:05:48.118Z,19.28
2022-08-25T00:10:54.020Z,19.32
2022-08-25T00:16:06.669Z,19.36
2022-08-25T00:21:09.739Z,19.39
2022-08-25T00:26:15.830Z,19.41
2022-08-25T00:31:21.076Z,19.39
2022-08-25T00:36:23.904Z,19.35
2022-08-25T00:41:26.935Z,19.36
2022-08-25T00:46:51.566Z,19.35
2022-08-25T00:52:04.966Z,19.36
2022-08-25T00:57:11.104Z,19.36
2022-08-25T01:02:15.544Z,19.31
2022-08-25T01:07:20.629Z,19.33
2022-08-25T01:12:23.429Z,19.35
2022-08-25T01:17:28.277Z,19.39
2022-08-25T01:22:32.307Z,19.38
2022-08-25T01:27:35.055Z,19.33
2022-08-25T01:32:37.828Z,19.27
2022-08-25T01:37:42.248Z,19.24
2022-08-25T01:43:08.061Z,19.26
2022-08-25T01:48:12.270Z,19.30
2022-08-25T01:53:26.751Z,19.34
2022-08-25T01:58:33.119Z,19.38
2022-08-25T02:03:42.293Z,19.42
2022-08-25T02:08:45.380Z,19.41
2022-08-25T02:13:48.194Z,19.42
2022-08-25T02:18:51.440Z,19.45
2022-08-25T02:23:54.752Z,19.45
2022-08-25T02:28:58.196Z,19.43
2022-08-25T02:34:02.436Z,19.42
2022-08-25T02:39:08.238Z,19.42
2022-08-25T02:44:11.029Z,19.40
2022-08-25T02:49:13.748Z,19.37
2022-08-25T02:54:16.476Z,19.35
2022-08-25T02:59:19.632Z,19.37
2022-08-25T03:04:22.664Z,19.40
2022-08-25T03:09:27.475Z,19.44
2022-08-25T03:14:30.463Z,19.45
2022-08-25T03:19:33.195Z,19.40
2022-08-25T03:24:35.956Z,19.34
2022-08-25T03:29:39.461Z,19.30
2022-08-25T03:34:42.497Z,19.23
2022-08-25T03:39:45.276Z,19.14
2022-08-25T03:44:48.392Z,19.10
2022-08-25T03:49:51.914Z,19.16
2022-08-25T03:54:54.669Z,19.22
2022-08-25T03:59:57.426Z,19.30
2022-08-25T04:05:01.143Z,19.40
2022-08-25T04:10:06.860Z,19.50
2022-08-25T04:15:10.714Z,19.52
2022-08-25T04:20:14.296Z,19.52
2022-08-25T04:25:17.669Z,19.63
2022-08-25T04:30:20.525Z,19.78
2022-08-25T04:35:23.766Z,19.96
2022-08-25T04:40:28.814Z,20.15
2022-08-25T04:45:32.105Z,20.29
2022-08-25T04:50:39.086Z,20.46
2022-08-25T04:55:43.268Z,20.62
2022-08-25T05:00:46.884Z,20.85
2022-08-25T05:05:52.530Z,21.04
2022-08-25T05:10:56.797Z,21.15
2022-08-25T05:16:01.132Z,21.12
2022-08-25T05:21:13.626Z,20.98
2022-08-25T05:26:20.706Z,20.79
2022-08-25T05:31:26.236Z,20.60
2022-08-25T05:36:29.765Z,20.46
2022-08-25T05:41:33.584Z,20.35
2022-08-25T05:46:36.830Z,20.21
2022-08-25T05:51:39.654Z,20.15
2022-08-25T05:56:42.389Z,20.07
2022-08-25T06:02:03.548Z,20.00
2022-08-25T06:07:06.472Z,19.95
2022-08-25T06:12:09.604Z,19.93
2022-08-25T06:17:12.398Z,19.91
2022-08-25T06:22:15.213Z,19.91
2022-08-25T06:27:18.599Z,19.94
2022-08-25T06:32:21.312Z,19.94
2022-08-25T06:37:25.347Z,19.91
2022-08-25T06:42:28.435Z,19.83
2022-08-25T06:47:31.294Z,19.81
2022-08-25T06:52:36.079Z,19.76
2022-08-25T06:57:38.803Z,19.66
2022-08-25T07:02:42.611Z,19.59
2022-08-25T07:07:46.519Z,19.53
2022-08-25T07:12:49.354Z,19.52
2022-08-25T07:17:52.261Z,19.54
2022-08-25T07:22:55.068Z,19.54
2022-08-25T07:27:58.971Z,19.55
2022-08-25T07:33:05.879Z,19.60
2022-08-25T07:38:12.313Z,19.76
2022-08-25T07:43:18.390Z,19.97
2022-08-25T07:48:21.146Z,20.22
2022-08-25T07:53:23.897Z,20.40
2022-08-25T07:58:26.663Z,20.64
2022-08-25T08:03:45.053Z,20.84
2022-08-25T08:08:58.833Z,21.08
2022-08-25T08:14:02.540Z,21.27
2022-08-25T08:19:05.290Z,21.48
2022-08-25T08:24:24.795Z,21.62
2022-08-25T08:29:31.797Z,21.77
2022-08-25T08:34:35.866Z,21.88
2022-08-25T08:39:39.140Z,21.96
2022-08-25T08:44:44.988Z,21.94
2022-08-25T08:50:03.945Z,21.90
2022-08-25T08:55:15.958Z,22.01
2022-08-25T09:00:18.937Z,22.09
2022-08-25T09:05:26.199Z,22.26
2022-08-25T09:10:55.899Z,22.50
2022-08-25T09:16:33.969Z,22.78
2022-08-25T09:21:48.691Z,23.13
2022-08-25T09:27:31.325Z,23.50
2022-08-25T09:32:48.710Z,23.75
2022-08-25T09:38:06.997Z,23.72
2022-08-25T09:43:34.845Z,23.72
2022-08-25T09:48:56.416Z,23.68
2022-08-25T09:54:13.223Z,23.63
2022-08-25T09:59:34.923Z,23.75
2022-08-25T10:04:40.377Z,24.04
2022-08-25T10:09:43.818Z,24.30
2022-08-25T10:14:49.070Z,24.68
2022-08-25T10:20:15.668Z,25.05
2022-08-25T10:25:27.298Z,25.38
2022-08-25T10:30:40.576Z,25.78
2022-08-25T10:36:09.006Z,26.08
2022-08-25T10:41:23.986Z,26.43
2022-08-25T10:46:38.456Z,26.64
2022-08-25T10:52:02.110Z,26.81
2022-08-25T10:57:30.941Z,27.02
2022-08-25T11:03:01.965Z,27.24
2022-08-25T11:08:40.928Z,27.38
2022-08-25T11:13:48.396Z,27.67
2022-08-25T11:18:59.515Z,27.79
2022-08-25T11:24:27.246Z,27.78
2022-08-25T11:29:35.360Z,27.89
2022-08-25T11:34:40.114Z,27.84
2022-08-25T11:40:19.978Z,27.66
2022-08-25T11:45:45.862Z,27.51
2022-08-25T11:51:07.437Z,27.28
2022-08-25T11:56:36.493Z,27.21
2022-08-25T12:01:45.999Z,27.28
2022-08-25T12:07:38.204Z,27.38
2022-08-25T12:12:46.862Z,27.49
2022-08-25T12:18:13.587Z,27.54
2022-08-25T12:23:28.976Z,27.54
2022-08-25T12:28:52.517Z,27.64
2022-08-25T12:33:59.560Z,27.79
2022-08-25T12:39:18.356Z,27.96
2022-08-25T12:44:41.543Z,28.24
2022-08-25T12:49:45.646Z,28.59
2022-08-25T12:54:53.878Z,28.90
2022-08-25T12:59:59.023Z,29.04
2022-08-25T13:05:39.530Z,29.12
2022-08-25T13:10:42.366Z,29.11
2022-08-25T13:15:57.536Z,29.13
2022-08-25T13:21:30.922Z,29.20
2022-08-25T13:26:47.235Z,29.34
2022-08-25T13:32:09.528Z,29.38
2022-08-25T13:37:31.472Z,29.36
2022-08-25T13:42:36.599Z,29.39
2022-08-25T13:47:43.609Z,29.40
2022-08-25T13:53:01.176Z,29.40
2022-08-25T13:58:14.465Z,29.35
2022-08-25T14:03:33.726Z,29.41
2022-08-25T14:08:43.929Z,29.44
2022-08-25T14:13:46.943Z,29.45
2022-08-25T14:18:55.004Z,29.52
2022-08-25T14:24:01.532Z,29.65
2022-08-25T14:29:04.231Z,29.62
2022-08-25T14:34:17.688Z,29.64
2022-08-25T14:39:23.036Z,29.61
2022-08-25T14:44:25.878Z,29.64
2022-08-25T14:49:35.630Z,29.70
2022-08-25T14:54:38.381Z,29.76
2022-08-25T14:59:43.424Z,29.90
2022-08-25T15:04:51.805Z,30.43
2022-08-25T15:09:54.747Z,31.65
2022-08-25T15:14:58.373Z,32.81
2022-08-25T15:20:01.644Z,33.70
2022-08-25T15:25:09.265Z,34.35
2022-08-25T15:30:13.123Z,34.83
2022-08-25T15:35:16.123Z,35.08
2022-08-25T15:40:19.988Z,35.51
2022-08-25T15:45:22.780Z,35.74
2022-08-25T15:50:26.999Z,35.81
2022-08-25T15:55:29.775Z,35.64
2022-08-25T16:00:32.604Z,35.27
2022-08-25T16:05:47.897Z,34.91
2022-08-25T16:10:51.223Z,34.84
2022-08-25T16:15:55.172Z,34.73
2022-08-25T16:20:57.929Z,34.54
2022-08-25T16:26:05.308Z,34.11
2022-08-25T16:31:16.772Z,33.73
2022-08-25T16:36:27.145Z,33.25
2022-08-25T16:41:34.413Z,32.90
2022-08-25T16:46:40.812Z,32.39
2022-08-25T16:51:44.164Z,31.85
2022-08-25T16:56:46.984Z,31.29
2022-08-25T17:01:56.517Z,30.51
2022-08-25T17:06:59.451Z,29.79
2022-08-25T17:12:02.570Z,29.18
2022-08-25T17:17:07.107Z,28.51
2022-08-25T17:22:14.203Z,27.75
2022-08-25T17:27:18.730Z,27.09
2022-08-25T17:32:21.471Z,26.52
2022-08-25T17:37:33.059Z,25.96
2022-08-25T17:42:35.881Z,25.47
2022-08-25T17:47:38.584Z,25.04
2022-08-25T17:52:41.392Z,24.69
2022-08-25T17:57:44.122Z,24.38
2022-08-25T18:02:47.184Z,24.12
2022-08-25T18:07:50.631Z,23.92
2022-08-25T18:12:53.844Z,23.76
2022-08-25T18:17:57.348Z,23.60
2022-08-25T18:23:00.252Z,23.46
2022-08-25T18:28:04.165Z,23.35
2022-08-25T18:33:07.473Z,23.23
2022-08-25T18:38:29.049Z,23.13
2022-08-25T18:43:34.055Z,23.02
2022-08-25T18:48:37.308Z,22.91
2022-08-25T18:53:49.744Z,22.82
2022-08-25T18:58:56.598Z,22.73
2022-08-25T19:03:59.414Z,22.63
2022-08-25T19:09:04.626Z,22.52
2022-08-25T19:14:12.409Z,22.44
2022-08-25T19:19:15.482Z,22.39
2022-08-25T19:24:19.296Z,22.33
2022-08-25T19:29:23.334Z,22.24
2022-08-25T19:34:31.026Z,22.16
2022-08-25T19:39:39.214Z,22.09
2022-08-25T19:44:43.729Z,22.07
2022-08-25T19:49:47.835Z,22.07
2022-08-25T19:54:55.629Z,22.03
2022-08-25T19:59:58.403Z,21.95
2022-08-25T20:05:01.437Z,21.91
2022-08-25T20:10:07.244Z,21.88
2022-08-25T20:15:13.739Z,21.83
2022-08-25T20:20:21.834Z,21.73
2022-08-25T20:25:26.552Z,21.68
2022-08-25T20:30:39.127Z,21.64
2022-08-25T20:35:47.124Z,21.66
2022-08-25T20:40:49.847Z,21.65
2022-08-25T20:46:03.673Z,21.70
2022-08-25T20:51:07.759Z,21.75
2022-08-25T20:56:13.842Z,21.74
2022-08-25T21:01:22.903Z,21.71
2022-08-25T21:06:26.151Z,21.67
2022-08-25T21:11:29.200Z,21.62
2022-08-25T21:16:32.174Z,21.56
2022-08-25T21:21:34.928Z,21.45
2022-08-25T21:26:48.851Z,21.31
2022-08-25T21:31:52.116Z,21.13
2022-08-25T21:36:57.991Z,21.04
2022-08-25T21:42:01.491Z,20.99
2022-08-25T21:47:04.711Z,20.94
2022-08-25T21:52:07.526Z,20.87
2022-08-25T21:57:10.350Z,20.81
2022-08-25T22:02:13.999Z,20.75
2022-08-25T22:07:17.131Z,20.68
2022-08-25T22:12:20.530Z,20.59
2022-08-25T22:17:24.436Z,20.56
2022-08-25T22:22:27.521Z,20.55
2022-08-25T22:27:30.395Z,20.54
2022-08-25T22:32:33.114Z,20.51
2022-08-25T22:37:35.815Z,20.51
2022-08-25T22:42:38.576Z,20.49
2022-08-25T22:47:43.732Z,20.44
2022-08-25T22:52:46.914Z,20.38
2022-08-25T22:57:50.629Z,20.30
2022-08-25T23:02:57.727Z,20.21
2022-08-25T23:08:00.503Z,20.14
2022-08-25T23:13:03.413Z,20.05
2022-08-25T23:18:10.172Z,19.96
2022-08-25T23:23:14.010Z,19.82
2022-08-25T23:28:16.961Z,19.65
2022-08-25T23:33:19.893Z,19.52
2022-08-25T23:38:23.292Z,19.42
2022-08-25T23:43:26.098Z,19.36
2022-08-25T23:48:28.838Z,19.31
2022-08-25T23:53:33.150Z,19.25
2022-08-25T23:58:36.007Z,19.22
